WXForecasting.com
 MARQUETTE COUNTY, MI  -  Lakeshore Flood Advisory Lakeshore Flood Advisory     Lake Effect Snow Advisory Lake Effect Snow Advisory  
Harvey, MI - Weather Station Data
 
Daily Summary for October 30, 2014 Units:  English    Metric   Both
« Previous Day
Next Day »
Daily Weekly Monthly Yearly Custom
  Current: High: Low: Average:
Temperature: 42.1 °F 45.5 °F 37.9 °F 41.9 °F
Dew Point: 39.0 °F 40.0 °F 35.0 °F 37 °F
Humidity: 89% 89% 73% 83%
Wind Speed: 0.0mph 4.0mph 0.0mph 0.5mph
Wind Gust: 0.0mph 9.0mph - -
WindCalm - - South
Pressure: 29.94 in 30.04 in 29.94 in -
Precipitation: 0.02 in      
Historical Graphs
 
 
Tabular Data for October 30, 2014
Time Temp Dew Point Pressure Wind Wind Speed Wind Gust RH Rain Rate/Hour
00:11 37.9 °F 35.0 °F 30.03 in Calm     88% 0.00 in
00:26 38.0 °F 35.0 °F 30.04 in Calm     88% 0.00 in
00:41 38.1 °F 35.0 °F 30.03 in NW 1.0 mph 1.0 mph 88% 0.00 in
00:56 38.2 °F 35.0 °F 30.03 in Calm     88% 0.00 in
01:11 38.4 °F 35.0 °F 30.03 in Calm     88% 0.00 in
01:26 38.6 °F 35.0 °F 30.03 in Calm   2.0 mph 88% 0.00 in
01:41 38.9 °F 35.0 °F 30.03 in Calm   2.0 mph 87% 0.00 in
01:56 39.2 °F 35.0 °F 30.03 in Calm   1.0 mph 86% 0.00 in
02:11 39.4 °F 36.0 °F 30.03 in Calm   1.0 mph 86% 0.00 in
02:26 39.5 °F 36.0 °F 30.03 in Calm   1.0 mph 86% 0.00 in
02:41 39.6 °F 36.0 °F 30.03 in Calm   2.0 mph 86% 0.00 in
02:56 39.8 °F 36.0 °F 30.02 in Calm   2.0 mph 85% 0.00 in
03:12 40.1 °F 36.0 °F 30.02 in Calm   2.0 mph 85% 0.00 in
03:27 40.2 °F 36.0 °F 30.02 in Calm   1.0 mph 85% 0.00 in
03:42 40.3 °F 36.0 °F 30.01 in Calm   2.0 mph 84% 0.00 in
03:57 40.4 °F 36.0 °F 30.01 in Calm   6.0 mph 83% 0.00 in
04:12 40.5 °F 36.0 °F 30.01 in Calm   2.0 mph 84% 0.00 in
04:27 40.5 °F 36.0 °F 30.01 in Calm   5.0 mph 83% 0.00 in
04:42 40.5 °F 36.0 °F 30.00 in Calm   1.0 mph 83% 0.00 in
04:57 40.4 °F 36.0 °F 30.00 in Calm   2.0 mph 84% 0.00 in
05:12 40.4 °F 36.0 °F 30.00 in Calm   1.0 mph 84% 0.00 in
05:27 40.3 °F 36.0 °F 30.01 in Calm   1.0 mph 84% 0.00 in
05:42 40.3 °F 36.0 °F 30.01 in SSE 1.0 mph 5.0 mph 84% 0.00 in
05:57 40.4 °F 36.0 °F 30.01 in South 1.0 mph 3.0 mph 84% 0.00 in
06:12 40.4 °F 36.0 °F 30.01 in Calm   3.0 mph 83% 0.00 in
06:27 40.6 °F 36.0 °F 30.01 in SSE 1.0 mph 3.0 mph 83% 0.00 in
06:42 40.7 °F 36.0 °F 30.01 in Calm   5.0 mph 82% 0.00 in
06:57 40.8 °F 36.0 °F 30.01 in Calm   3.0 mph 82% 0.00 in
07:12 40.7 °F 36.0 °F 30.01 in SSE 1.0 mph 2.0 mph 83% 0.00 in
07:27 40.8 °F 36.0 °F 30.01 in Calm   2.0 mph 83% 0.00 in
07:42 40.9 °F 36.0 °F 30.00 in Calm   2.0 mph 83% 0.00 in
07:57 41.0 °F 36.0 °F 30.00 in Calm   2.0 mph 82% 0.00 in
08:12 41.0 °F 37.0 °F 30.00 in SSE 1.0 mph 3.0 mph 87% 0.00 in
08:27 41.1 °F 36.0 °F 30.00 in Calm   5.0 mph 83% 0.00 in
08:42 41.1 °F 36.0 °F 30.00 in South 1.0 mph 5.0 mph 82% 0.00 in
08:57 41.2 °F 36.0 °F 30.00 in Calm   2.0 mph 83% 0.00 in
09:12 41.3 °F 37.0 °F 30.00 in Calm   3.0 mph 83% 0.00 in
09:27 41.5 °F 37.0 °F 30.00 in Calm   2.0 mph 83% 0.00 in
09:42 41.6 °F 37.0 °F 30.00 in Calm     83% 0.00 in
09:57 42.0 °F 37.0 °F 30.00 in Calm     82% 0.00 in
10:12 42.4 °F 37.0 °F 30.00 in Calm     81% 0.00 in
10:27 42.8 °F 37.0 °F 30.00 in Calm   2.0 mph 81% 0.00 in
10:42 43.1 °F 37.0 °F 30.00 in Calm   3.0 mph 80% 0.00 in
10:57 43.8 °F 38.0 °F 30.00 in South 2.0 mph 3.0 mph 79% 0.00 in
11:12 44.8 °F 38.0 °F 30.00 in South 2.0 mph 4.0 mph 77% 0.00 in
11:27 45.5 °F 37.0 °F 29.99 in South 1.0 mph 4.0 mph 73% 0.00 in
11:42 45.0 °F 37.0 °F 29.99 in SSW 2.0 mph 9.0 mph 74% 0.00 in
11:57 44.5 °F 37.0 °F 29.99 in SSW 1.0 mph 7.0 mph 76% 0.00 in
12:12 44.5 °F 37.0 °F 29.99 in South 1.0 mph 4.0 mph 75% 0.00 in
12:28 44.5 °F 37.0 °F 29.99 in SSE 3.0 mph 8.0 mph 74% 0.00 in
12:43 44.6 °F 37.0 °F 29.99 in Calm   5.0 mph 74% 0.00 in
12:58 44.6 °F 37.0 °F 29.98 in Calm   5.0 mph 74% 0.00 in
13:13 44.9 °F 37.0 °F 29.98 in Calm   5.0 mph 74% 0.00 in
13:28 44.7 °F 37.0 °F 29.98 in SSW 3.0 mph 9.0 mph 74% 0.00 in
13:43 44.7 °F 37.0 °F 29.98 in Calm   5.0 mph 75% 0.00 in
13:58 44.7 °F 38.0 °F 29.97 in SSW 3.0 mph 4.0 mph 76% 0.00 in
14:13 44.7 °F 39.0 °F 29.97 in SSE 1.0 mph 5.0 mph 79% 0.00 in
14:28 45.0 °F 39.0 °F 29.96 in South 4.0 mph 5.0 mph 78% 0.00 in
14:43 44.9 °F 38.0 °F 29.96 in South 1.0 mph 5.0 mph 78% 0.00 in
14:58 45.3 °F 39.0 °F 29.96 in South 2.0 mph 3.0 mph 77% 0.00 in
15:13 45.4 °F 39.0 °F 29.95 in Calm   2.0 mph 79% 0.00 in
15:28 44.1 °F 39.0 °F 29.95 in Calm   4.0 mph 83% 0.00 in
15:43 43.3 °F 39.0 °F 29.95 in Calm   2.0 mph 86% 0.00 in
15:58 43.3 °F 40.0 °F 29.95 in Calm   2.0 mph 87% 0.01 in
16:13 43.0 °F 39.0 °F 29.95 in Calm   1.0 mph 87% 0.01 in
16:28 42.8 °F 39.0 °F 29.94 in Calm   1.0 mph 86% 0.01 in
16:43 42.9 °F 39.0 °F 29.95 in Calm   1.0 mph 87% 0.01 in
16:58 43.0 °F 39.0 °F 29.95 in Calm   1.0 mph 87% 0.01 in
17:13 42.9 °F 39.0 °F 29.95 in Calm   2.0 mph 87% 0.01 in
17:28 42.7 °F 39.0 °F 29.96 in WNW 1.0 mph 3.0 mph 87% 0.01 in
17:43 42.5 °F 39.0 °F 29.95 in Calm   2.0 mph 88% 0.01 in
17:58 42.4 °F 39.0 °F 29.95 in Calm     88% 0.00 in
18:13 42.4 °F 39.0 °F 29.94 in Calm     89% 0.00 in
18:28 42.3 °F 39.0 °F 29.95 in Calm     89% 0.00 in
18:43 42.1 °F 39.0 °F 29.94 in Calm     89% 0.00 in
Compliments of Weather Underground

6 Visitors online right now
Max visitors today: 17 at 07:24 am EDT
This month: 29 at 10-02-2014 07:29 am EDT
This year: 33 at 09-23-2014 08:38 pm EDT
All time: 104 at 01-04-2012 03:34 am EST
See Who is Online